Time,TemperatureF,DewpointF,PressureIn,WindDirection,WindDirectionDegrees,WindSpeedMPH,WindSpeedGustMPH,Humidity,HourlyPrecipIn,Conditions,Clouds,dailyrainin,SoftwareType,DateUTC
2013-08-12 00:14:00,77.0,71.4,29.94,SSE,157,0.0,-999.0,83,-99.99,,,0.00,Acu-Link.com,2013-08-12 05:14:00,
2013-08-12 00:29:00,76.6,71.4,29.93,West,270,0.0,-999.0,84,-99.99,,,0.00,Acu-Link.com,2013-08-12 05:29:00,
2013-08-12 00:44:00,76.1,71.3,29.93,SSE,157,0.0,-999.0,85,-99.99,,,0.00,Acu-Link.com,2013-08-12 05:44:00,
2013-08-12 00:59:00,76.1,71.6,29.94,SSE,157,0.0,-999.0,86,-99.99,,,0.00,Acu-Link.com,2013-08-12 05:59:00,
2013-08-12 01:15:00,75.9,71.4,29.93,SE,135,2.2,-999.0,86,-99.99,,,0.00,Acu-Link.com,2013-08-12 06:15:00,
2013-08-12 01:30:00,75.9,71.7,29.93,ESE,112,1.1,-999.0,87,-99.99,,,0.00,Acu-Link.com,2013-08-12 06:30:00,
2013-08-12 01:45:00,75.7,71.5,29.93,SSE,157,0.0,-999.0,87,-99.99,,,0.00,Acu-Link.com,2013-08-12 06:45:00,
2013-08-12 02:01:00,75.6,71.4,29.93,SE,135,1.1,-999.0,87,-99.99,,,0.00,Acu-Link.com,2013-08-12 07:01:00,
2013-08-12 02:16:00,75.4,71.6,29.93,South,180,0.0,-999.0,88,-99.99,,,0.00,Acu-Link.com,2013-08-12 07:16:00,
2013-08-12 02:31:00,75.2,71.7,29.93,East,90,0.0,-999.0,89,-99.99,,,0.00,Acu-Link.com,2013-08-12 07:31:00,
2013-08-12 02:46:00,74.8,71.3,29.93,ESE,112,1.7,-999.0,89,-99.99,,,0.00,Acu-Link.com,2013-08-12 07:46:00,
2013-08-12 03:02:00,74.7,71.6,29.93,SE,135,1.1,-999.0,90,-99.99,,,0.00,Acu-Link.com,2013-08-12 08:02:00,
2013-08-12 03:18:00,74.7,71.6,29.93,SSE,157,1.7,-999.0,90,-99.99,,,0.00,Acu-Link.com,2013-08-12 08:18:00,
2013-08-12 03:33:00,74.5,71.4,29.92,ESE,112,0.0,-999.0,90,-99.99,,,0.00,Acu-Link.com,2013-08-12 08:33:00,
2013-08-12 03:48:00,74.3,71.2,29.92,ESE,112,0.0,-999.0,90,-99.99,,,0.00,Acu-Link.com,2013-08-12 08:48:00,
2013-08-12 04:04:00,73.9,71.1,29.92,SE,135,0.0,-999.0,91,-99.99,,,0.00,Acu-Link.com,2013-08-12 09:04:00,
2013-08-12 04:19:00,73.6,70.8,29.92,ESE,112,0.0,-999.0,91,-99.99,,,0.00,Acu-Link.com,2013-08-12 09:19:00,
2013-08-12 04:34:00,73.2,70.7,29.92,SSE,157,0.0,-999.0,92,-99.99,,,0.00,Acu-Link.com,2013-08-12 09:34:00,
2013-08-12 04:49:00,72.9,70.8,29.92,ENE,67,0.0,-999.0,93,-99.99,,,0.00,Acu-Link.com,2013-08-12 09:49:00,
2013-08-12 05:04:00,72.9,70.8,29.92,SE,135,0.0,-999.0,93,-99.99,,,0.00,Acu-Link.com,2013-08-12 10:04:00,
2013-08-12 05:20:00,72.7,70.6,29.92,SSE,157,0.0,-999.0,93,-99.99,,,0.00,Acu-Link.com,2013-08-12 10:20:00,
2013-08-12 05:35:00,72.5,70.7,29.92,SSE,157,1.1,-999.0,94,-99.99,,,0.00,Acu-Link.com,2013-08-12 10:35:00,
2013-08-12 05:50:00,72.5,70.7,29.92,ESE,112,2.2,-999.0,94,-99.99,,,0.00,Acu-Link.com,2013-08-12 10:50:00,
2013-08-12 06:05:00,72.5,71.0,29.93,ESE,112,0.0,-999.0,95,-99.99,,,0.00,Acu-Link.com,2013-08-12 11:05:00,
2013-08-12 06:20:00,72.3,70.8,29.92,East,90,1.7,-999.0,95,-99.99,,,0.00,Acu-Link.com,2013-08-12 11:20:00,
2013-08-12 06:36:00,72.3,70.8,29.93,South,180,0.0,-999.0,95,-99.99,,,0.00,Acu-Link.com,2013-08-12 11:36:00,
2013-08-12 06:51:00,72.3,71.1,29.93,SSE,157,0.0,-999.0,96,-99.99,,,0.00,Acu-Link.com,2013-08-12 11:51:00,
2013-08-12 07:06:00,72.1,70.9,29.93,ESE,112,0.0,-999.0,96,-99.99,,,0.00,Acu-Link.com,2013-08-12 12:06:00,
2013-08-12 07:21:00,72.5,71.3,29.93,SE,135,0.0,-999.0,96,-99.99,,,0.00,Acu-Link.com,2013-08-12 12:21:00,
2013-08-12 07:37:00,73.6,71.8,29.94,South,180,0.0,-999.0,94,-99.99,,,0.00,Acu-Link.com,2013-08-12 12:37:00,
2013-08-12 07:52:00,75.0,72.2,29.94,SSE,157,1.7,-999.0,91,-99.99,,,0.00,Acu-Link.com,2013-08-12 12:52:00,
2013-08-12 08:07:00,77.2,73.0,29.94,West,270,1.1,-999.0,87,-99.99,,,0.00,Acu-Link.com,2013-08-12 13:07:00,
2013-08-12 08:23:00,80.8,73.7,29.95,SE,135,2.2,-999.0,79,-99.99,,,0.00,Acu-Link.com,2013-08-12 13:23:00,
2013-08-12 08:38:00,82.2,72.7,29.96,WNW,292,4.7,-999.0,73,-99.99,,,0.00,Acu-Link.com,2013-08-12 13:38:00,
2013-08-12 08:53:00,84.0,72.7,29.95,SE,135,2.7,-999.0,69,-99.99,,,0.00,Acu-Link.com,2013-08-12 13:53:00,
2013-08-12 09:08:00,86.2,72.6,29.95,ESE,112,2.2,-999.0,64,-99.99,,,0.00,Acu-Link.com,2013-08-12 14:08:00,
2013-08-12 09:23:00,90.1,72.3,29.95,WNW,292,1.7,-999.0,56,-99.99,,,0.00,Acu-Link.com,2013-08-12 14:23:00,
2013-08-12 09:38:00,90.1,71.7,29.95,North,0,2.2,-999.0,55,-99.99,,,0.00,Acu-Link.com,2013-08-12 14:38:00,
2013-08-12 09:54:00,89.2,70.9,29.96,WSW,247,2.2,-999.0,55,-99.99,,,0.00,Acu-Link.com,2013-08-12 14:54:00,
2013-08-12 10:09:00,90.7,71.2,29.95,ESE,112,4.2,-999.0,53,-99.99,,,0.00,Acu-Link.com,2013-08-12 15:09:00,
2013-08-12 10:24:00,91.8,71.6,29.96,WSW,247,1.1,-999.0,52,-99.99,,,0.00,Acu-Link.com,2013-08-12 15:24:00,
2013-08-12 10:39:00,88.2,71.0,29.95,North,0,2.2,-999.0,57,-99.99,,,0.00,Acu-Link.com,2013-08-12 15:39:00,
2013-08-12 10:54:00,88.3,70.6,29.95,West,270,3.2,-999.0,56,-99.99,,,0.00,Acu-Link.com,2013-08-12 15:54:00,
2013-08-12 11:10:00,88.7,70.4,29.95,ESE,112,4.2,-999.0,55,-99.99,,,0.00,Acu-Link.com,2013-08-12 16:10:00,
2013-08-12 11:25:00,89.4,70.5,29.95,WSW,247,2.7,-999.0,54,-99.99,,,0.00,Acu-Link.com,2013-08-12 16:25:00,
2013-08-12 11:40:00,90.3,69.7,29.95,West,270,3.7,-999.0,51,-99.99,,,0.00,Acu-Link.com,2013-08-12 16:40:00,
2013-08-12 11:56:00,90.9,70.2,29.95,South,180,3.2,-999.0,51,-99.99,,,0.00,Acu-Link.com,2013-08-12 16:56:00,
2013-08-12 12:11:00,91.6,69.1,29.94,West,270,3.2,-999.0,48,-99.99,,,0.00,Acu-Link.com,2013-08-12 17:11:00,
2013-08-12 12:26:00,90.9,69.6,29.94,ESE,112,2.7,-999.0,50,-99.99,,,0.00,Acu-Link.com,2013-08-12 17:26:00,
2013-08-12 12:41:00,91.2,69.9,29.94,SSW,202,1.7,-999.0,50,-99.99,,,0.00,Acu-Link.com,2013-08-12 17:41:00,
2013-08-12 12:57:00,93.2,68.0,29.93,West,270,2.2,-999.0,44,-99.99,,,0.00,Acu-Link.com,2013-08-12 17:57:00,
2013-08-12 13:12:00,92.7,68.2,29.92,ESE,112,4.2,-999.0,45,-99.99,,,0.00,Acu-Link.com,2013-08-12 18:12:00,
2013-08-12 13:27:00,92.1,67.7,29.92,West,270,2.7,-999.0,45,-99.99,,,0.00,Acu-Link.com,2013-08-12 18:27:00,
2013-08-12 13:43:00,92.7,68.2,29.91,East,90,3.2,-999.0,45,-99.99,,,0.00,Acu-Link.com,2013-08-12 18:43:00,
2013-08-12 13:58:00,95.9,68.4,29.91,ESE,112,3.2,-999.0,41,-99.99,,,0.00,Acu-Link.com,2013-08-12 18:58:00,
2013-08-12 14:13:00,97.0,68.6,29.90,South,180,4.7,-999.0,40,-99.99,,,0.00,Acu-Link.com,2013-08-12 19:13:00,
2013-08-12 14:28:00,96.6,68.3,29.90,SE,135,3.7,-999.0,40,-99.99,,,0.00,Acu-Link.com,2013-08-12 19:28:00,
2013-08-12 14:44:00,93.6,67.7,29.90,SE,135,1.1,-999.0,43,-99.99,,,0.00,Acu-Link.com,2013-08-12 19:44:00,
2013-08-12 14:59:00,93.6,67.7,29.89,East,90,1.1,-999.0,43,-99.99,,,0.00,Acu-Link.com,2013-08-12 19:59:00,
2013-08-12 15:14:00,94.1,68.1,29.89,ESE,112,4.2,-999.0,43,-99.99,,,0.00,Acu-Link.com,2013-08-12 20:14:00,
2013-08-12 15:29:00,97.2,68.1,29.89,South,180,3.2,-999.0,39,-99.99,,,0.00,Acu-Link.com,2013-08-12 20:29:00,
2013-08-12 15:44:00,95.7,67.5,29.87,ESE,112,4.2,-999.0,40,-99.99,,,0.00,Acu-Link.com,2013-08-12 20:44:00,
2013-08-12 16:00:00,95.4,67.2,29.87,SE,135,3.2,-999.0,40,-99.99,,,0.00,Acu-Link.com,2013-08-12 21:00:00,
2013-08-12 16:15:00,95.4,67.2,29.86,SE,135,1.7,-999.0,40,-99.99,,,0.00,Acu-Link.com,2013-08-12 21:15:00,
2013-08-12 16:30:00,99.0,67.3,29.86,ESE,112,3.2,-999.0,36,-99.99,,,0.00,Acu-Link.com,2013-08-12 21:30:00,
2013-08-12 16:46:00,98.1,67.3,29.85,South,180,2.7,-999.0,37,-99.99,,,0.00,Acu-Link.com,2013-08-12 21:46:00,
2013-08-12 17:16:00,96.8,66.9,29.83,South,180,4.2,-999.0,38,-99.99,,,0.00,Acu-Link.com,2013-08-12 22:16:00,
2013-08-12 17:32:00,96.6,66.0,29.83,SE,135,4.2,-999.0,37,-99.99,,,0.00,Acu-Link.com,2013-08-12 22:32:00,
2013-08-12 17:47:00,97.3,65.8,29.83,SE,135,4.2,-999.0,36,-99.99,,,0.00,Acu-Link.com,2013-08-12 22:47:00,
2013-08-12 18:02:00,96.1,66.3,29.82,ESE,112,3.2,-999.0,38,-99.99,,,0.00,Acu-Link.com,2013-08-12 23:02:00,
2013-08-12 18:17:00,97.2,66.5,29.82,East,90,1.7,-999.0,37,-99.99,,,0.00,Acu-Link.com,2013-08-12 23:17:00,
2013-08-12 18:33:00,95.4,65.7,29.82,SSE,157,4.7,-999.0,38,-99.99,,,0.00,Acu-Link.com,2013-08-12 23:33:00,
2013-08-12 18:48:00,97.5,66.8,29.82,SE,135,2.7,-999.0,37,-99.99,,,0.00,Acu-Link.com,2013-08-12 23:48:00,
2013-08-12 19:03:00,96.6,65.2,29.82,NW,315,3.7,-999.0,36,-99.99,,,0.00,Acu-Link.com,2013-08-13 00:03:00,
2013-08-12 19:18:00,95.4,64.9,29.83,SW,225,7.3,-999.0,37,-99.99,,,0.00,Acu-Link.com,2013-08-13 00:18:00,
2013-08-12 19:34:00,94.1,64.6,29.83,SSE,157,2.7,-999.0,38,-99.99,,,0.00,Acu-Link.com,2013-08-13 00:34:00,
2013-08-12 19:49:00,92.7,64.8,29.84,NE,45,3.2,-999.0,40,-99.99,,,0.00,Acu-Link.com,2013-08-13 00:49:00,
2013-08-12 20:04:00,91.2,64.9,29.84,NE,45,1.7,-999.0,42,-99.99,,,0.00,Acu-Link.com,2013-08-13 01:04:00,
2013-08-12 20:19:00,90.3,64.7,29.84,SE,135,1.7,-999.0,43,-99.99,,,0.00,Acu-Link.com,2013-08-13 01:19:00,
2013-08-12 20:35:00,88.9,65.4,29.85,SE,135,0.0,-999.0,46,-99.99,,,0.00,Acu-Link.com,2013-08-13 01:35:00,
2013-08-12 20:50:00,88.0,65.2,29.85,SSE,157,0.0,-999.0,47,-99.99,,,0.00,Acu-Link.com,2013-08-13 01:50:00,
2013-08-12 21:05:00,86.9,66.0,29.85,ESE,112,0.0,-999.0,50,-99.99,,,0.00,Acu-Link.com,2013-08-13 02:05:00,
2013-08-12 21:21:00,85.8,65.0,29.86,East,90,0.0,-999.0,50,-99.99,,,0.00,Acu-Link.com,2013-08-13 02:21:00,
2013-08-12 21:36:00,84.4,65.4,29.86,NE,45,0.0,-999.0,53,-99.99,,,0.00,Acu-Link.com,2013-08-13 02:36:00,
2013-08-12 21:51:00,83.5,66.1,29.88,East,90,0.0,-999.0,56,-99.99,,,0.00,Acu-Link.com,2013-08-13 02:51:00,
2013-08-12 22:06:00,82.8,65.5,29.88,NNW,337,0.0,-999.0,56,-99.99,,,0.00,Acu-Link.com,2013-08-13 03:06:00,
2013-08-12 22:21:00,82.0,65.2,29.88,East,90,0.0,-999.0,57,-99.99,,,0.00,Acu-Link.com,2013-08-13 03:21:00,
2013-08-12 22:37:00,81.5,66.3,29.88,ESE,112,0.0,-999.0,60,-99.99,,,0.00,Acu-Link.com,2013-08-13 03:37:00,
2013-08-12 23:07:00,81.7,66.0,29.88,SSE,157,0.0,-999.0,59,-99.99,,,0.00,Acu-Link.com,2013-08-13 04:07:00,
2013-08-12 23:22:00,82.0,66.7,29.87,SE,135,1.7,-999.0,60,-99.99,,,0.00,Acu-Link.com,2013-08-13 04:22:00,
2013-08-12 23:38:00,82.2,66.9,29.87,WNW,292,1.1,-999.0,60,-99.99,,,0.00,Acu-Link.com,2013-08-13 04:38:00,
2013-08-12 23:53:00,82.4,67.1,29.87,SSW,202,1.1,-999.0,60,-99.99,,,0.00,Acu-Link.com,2013-08-13 04:53:00,